createdAt,value
2023-02-15T00:00:56.068Z,102110.63
2023-02-15T00:03:34.535Z,102114.18
2023-02-15T00:06:07.460Z,102109.91
2023-02-15T00:08:39.697Z,102124.48
2023-02-15T00:11:16.057Z,102123.93
2023-02-15T00:13:48.317Z,102129.54
2023-02-15T00:16:20.512Z,102127.23
2023-02-15T00:18:55.708Z,102129.60
2023-02-15T00:21:27.933Z,102129.66
2023-02-15T00:24:01.030Z,102120.44
2023-02-15T00:26:33.628Z,102126.23
2023-02-15T00:29:06.382Z,102117.32
2023-02-15T00:31:39.205Z,102120.73
2023-02-15T00:34:15.493Z,102120.66
2023-02-15T00:36:48.530Z,102116.31
2023-02-15T00:39:21.792Z,102117.42
2023-02-15T00:41:54.069Z,102110.30
2023-02-15T00:44:26.397Z,102102.23
2023-02-15T00:46:58.843Z,102107.73
2023-02-15T00:49:31.210Z,102110.42
2023-02-15T00:52:03.449Z,102112.02
2023-02-15T00:54:36.787Z,102109.13
2023-02-15T00:57:09.163Z,102111.74
2023-02-15T00:59:41.354Z,102109.48
2023-02-15T01:02:13.655Z,102109.23
2023-02-15T01:04:46.267Z,102111.64
2023-02-15T01:07:18.626Z,102117.02
2023-02-15T01:09:50.967Z,102114.83
2023-02-15T01:12:23.246Z,102116.70
2023-02-15T01:14:55.589Z,102114.17
2023-02-15T01:17:28.285Z,102109.10
2023-02-15T01:20:01.431Z,102113.48
2023-02-15T01:22:33.693Z,102116.78
2023-02-15T01:25:06.544Z,102122.40
2023-02-15T01:27:38.830Z,102119.99
2023-02-15T01:30:13.491Z,102122.69
2023-02-15T01:32:46.637Z,102126.81
2023-02-15T01:35:19.044Z,102123.15
2023-02-15T01:37:51.457Z,102121.66
2023-02-15T01:40:24.815Z,102125.83
2023-02-15T01:42:58.517Z,102126.44
2023-02-15T01:45:32.593Z,102129.91
2023-02-15T01:48:08.172Z,102130.41
2023-02-15T01:50:43.817Z,102135.52
2023-02-15T01:53:20.343Z,102131.83
2023-02-15T01:55:56.604Z,102130.88
2023-02-15T01:58:31.380Z,102129.97
2023-02-15T02:01:06.858Z,102128.20
2023-02-15T02:03:52.135Z,102129.98
2023-02-15T02:06:26.459Z,102127.53
2023-02-15T02:08:59.948Z,102135.73
2023-02-15T02:11:32.281Z,102133.38
2023-02-15T02:14:04.665Z,102129.67
2023-02-15T02:16:47.480Z,102132.66
2023-02-15T02:19:56.615Z,102138.86
2023-02-15T02:23:10.453Z,102130.31
2023-02-15T02:26:11.914Z,102135.63
2023-02-15T02:29:30.399Z,102133.81
2023-02-15T02:32:27.109Z,102134.63
2023-02-15T02:35:03.448Z,102130.52
2023-02-15T02:37:46.694Z,102136.99
2023-02-15T02:40:27.357Z,102140.66
2023-02-15T02:43:05.498Z,102143.80
2023-02-15T02:45:48.040Z,102148.77
2023-02-15T02:48:25.022Z,102149.80
2023-02-15T02:50:57.415Z,102154.80
2023-02-15T02:53:32.666Z,102151.80
2023-02-15T02:56:08.788Z,102151.61
2023-02-15T02:58:47.402Z,102152.67
2023-02-15T03:01:25.002Z,102151.68
2023-02-15T03:04:02.971Z,102148.21
2023-02-15T03:06:42.818Z,102149.56
2023-02-15T03:09:19.870Z,102150.96
2023-02-15T03:11:53.027Z,102154.30
2023-02-15T03:14:25.449Z,102153.45
2023-02-15T03:16:58.755Z,102154.20
2023-02-15T03:19:35.708Z,102156.77
2023-02-15T03:22:13.211Z,102154.92
2023-02-15T03:24:51.320Z,102153.02
2023-02-15T03:27:26.929Z,102152.64
2023-02-15T03:30:02.253Z,102152.66
2023-02-15T03:32:37.622Z,102154.50
2023-02-15T03:35:10.887Z,102164.66
2023-02-15T03:37:48.858Z,102167.83
2023-02-15T03:40:43.068Z,102167.84
2023-02-15T03:43:21.737Z,102161.99
2023-02-15T03:45:59.940Z,102168.45
2023-02-15T03:48:37.324Z,102166.65
2023-02-15T03:51:32.002Z,102171.42
2023-02-15T03:54:06.522Z,102168.80
2023-02-15T03:56:40.851Z,102173.55
2023-02-15T03:59:30.616Z,102174.38
2023-02-15T04:02:17.479Z,102174.42
2023-02-15T04:04:51.407Z,102174.11
2023-02-15T04:07:23.702Z,102181.16
2023-02-15T04:10:13.764Z,102182.23
2023-02-15T04:12:46.713Z,102185.44
2023-02-15T04:15:36.419Z,102184.83
2023-02-15T04:18:09.039Z,102186.27
2023-02-15T04:20:58.647Z,102187.73
2023-02-15T04:23:48.465Z,102191.23
2023-02-15T04:26:20.679Z,102185.55
2023-02-15T04:28:53.039Z,102184.65
2023-02-15T04:31:25.503Z,102184.79
2023-02-15T04:33:58.064Z,102183.56
2023-02-15T04:36:30.318Z,102185.16
2023-02-15T04:39:02.655Z,102187.70
2023-02-15T04:41:35.592Z,102185.31
2023-02-15T04:44:08.345Z,102192.17
2023-02-15T04:46:40.653Z,102196.09
2023-02-15T04:49:13.359Z,102196.21
2023-02-15T04:51:45.808Z,102198.60
2023-02-15T04:54:18.094Z,102203.05
2023-02-15T04:56:50.514Z,102205.45
2023-02-15T04:59:22.702Z,102209.16
2023-02-15T05:01:55.166Z,102210.61
2023-02-15T05:04:27.905Z,102212.73
2023-02-15T05:07:00.300Z,102212.42
2023-02-15T05:09:32.711Z,102218.86
2023-02-15T05:12:05.136Z,102226.59
2023-02-15T05:14:37.464Z,102230.39
2023-02-15T05:17:09.845Z,102237.48
2023-02-15T05:19:42.200Z,102232.39
2023-02-15T05:22:14.589Z,102230.25
2023-02-15T05:25:04.184Z,102232.59
2023-02-15T05:27:54.225Z,102233.28
2023-02-15T05:30:26.707Z,102240.74
2023-02-15T05:32:59.133Z,102239.69
2023-02-15T05:35:31.341Z,102246.70
2023-02-15T05:38:06.422Z,102252.31
2023-02-15T05:40:39.105Z,102259.55
2023-02-15T05:43:11.418Z,102258.36
2023-02-15T05:45:46.493Z,102270.20
2023-02-15T05:48:19.665Z,102275.33
2023-02-15T05:51:01.502Z,102274.17
2023-02-15T05:53:35.971Z,102276.25
2023-02-15T05:56:10.380Z,102275.39
2023-02-15T05:58:43.958Z,102275.19
2023-02-15T06:01:18.245Z,102277.19
2023-02-15T06:03:50.767Z,102281.02
2023-02-15T06:06:23.293Z,102272.70
2023-02-15T06:08:56.194Z,102278.59
2023-02-15T06:11:28.583Z,102275.25
2023-02-15T06:14:00.962Z,102277.88
2023-02-15T06:16:33.458Z,102282.73
2023-02-15T06:19:06.434Z,102289.73
2023-02-15T06:21:38.820Z,102286.20
2023-02-15T06:24:12.101Z,102284.25
2023-02-15T06:26:44.456Z,102282.11
2023-02-15T06:29:16.951Z,102280.32
2023-02-15T06:31:49.381Z,102271.27
2023-02-15T06:34:21.808Z,102266.96
2023-02-15T06:36:54.334Z,102263.45
2023-02-15T06:39:26.822Z,102258.52
2023-02-15T06:41:59.722Z,102266.89
2023-02-15T06:44:33.134Z,102258.66
2023-02-15T06:47:05.580Z,102269.82
2023-02-15T06:49:37.889Z,102274.07
2023-02-15T06:52:10.412Z,102270.02
2023-02-15T06:54:43.890Z,102266.36
2023-02-15T06:57:16.276Z,102260.83
2023-02-15T06:59:48.579Z,102261.39
2023-02-15T07:02:21.005Z,102257.47
2023-02-15T07:04:53.401Z,102260.41
2023-02-15T07:07:25.770Z,102260.01
2023-02-15T07:09:58.093Z,102263.29
2023-02-15T07:12:46.033Z,102265.35
2023-02-15T07:15:21.784Z,102262.60
2023-02-15T07:17:54.345Z,102259.22
2023-02-15T07:20:27.307Z,102261.77
2023-02-15T07:22:59.784Z,102261.76
2023-02-15T07:25:32.317Z,102256.88
2023-02-15T07:28:06.149Z,102257.61
2023-02-15T07:30:38.436Z,102255.38
2023-02-15T07:33:25.859Z,102254.22
2023-02-15T07:35:59.962Z,102253.80
2023-02-15T07:38:35.457Z,102250.36
2023-02-15T07:41:09.447Z,102247.27
2023-02-15T07:43:44.112Z,102247.84
2023-02-15T07:46:17.928Z,102243.54
2023-02-15T07:48:50.505Z,102238.77
2023-02-15T07:51:22.808Z,102242.98
2023-02-15T07:53:55.142Z,102238.50
2023-02-15T07:56:27.647Z,102235.04
2023-02-15T07:59:04.140Z,102241.33
2023-02-15T08:01:38.295Z,102239.02
2023-02-15T08:04:12.175Z,102237.23
2023-02-15T08:06:44.541Z,102238.05
2023-02-15T08:09:16.838Z,102238.64
2023-02-15T08:11:51.391Z,102236.65
2023-02-15T08:14:24.553Z,102235.78
2023-02-15T08:17:03.508Z,102236.77
2023-02-15T08:19:36.794Z,102238.69
2023-02-15T08:22:11.360Z,102232.94
2023-02-15T08:24:43.814Z,102241.55
2023-02-15T08:27:16.176Z,102244.37
2023-02-15T08:29:48.573Z,102245.10
2023-02-15T08:32:21.106Z,102247.52
2023-02-15T08:34:53.749Z,102236.52
2023-02-15T08:37:26.836Z,102239.08
2023-02-15T08:39:59.195Z,102235.23
2023-02-15T08:42:31.537Z,102228.34
2023-02-15T08:45:03.871Z,102224.20
2023-02-15T08:47:36.206Z,102214.43
2023-02-15T08:50:10.046Z,102224.07
2023-02-15T08:52:42.732Z,102227.63
2023-02-15T08:55:15.038Z,102230.84
2023-02-15T08:57:48.074Z,102229.11
2023-02-15T09:00:23.613Z,102235.02
2023-02-15T09:02:56.266Z,102232.43
2023-02-15T09:05:28.872Z,102226.20
2023-02-15T09:08:01.250Z,102222.91
2023-02-15T09:10:33.637Z,102227.80
2023-02-15T09:13:06.062Z,102231.10
2023-02-15T09:15:38.448Z,102235.94
2023-02-15T09:18:10.731Z,102233.38
2023-02-15T09:20:43.044Z,102228.80
2023-02-15T09:23:26.843Z,102223.54
2023-02-15T09:26:04.377Z,102219.48
2023-02-15T09:28:37.166Z,102228.47
2023-02-15T09:31:12.174Z,102231.14
2023-02-15T09:33:46.604Z,102227.98
2023-02-15T09:36:22.647Z,102222.80
2023-02-15T09:39:00.133Z,102220.38
2023-02-15T09:42:08.031Z,102211.44
2023-02-15T09:45:00.459Z,102210.36
2023-02-15T09:47:54.518Z,102208.95
2023-02-15T09:50:36.772Z,102207.66
2023-02-15T09:53:29.830Z,102203.53
2023-02-15T09:56:09.063Z,102202.23
2023-02-15T09:58:54.622Z,102200.69
2023-02-15T10:01:38.769Z,102202.84
2023-02-15T10:04:27.109Z,102197.05
2023-02-15T10:07:07.917Z,102200.20
2023-02-15T10:09:52.506Z,102198.50
2023-02-15T10:12:45.524Z,102198.28
2023-02-15T10:15:30.227Z,102197.92
2023-02-15T10:18:21.904Z,102191.83
2023-02-15T10:21:04.348Z,102196.16
2023-02-15T10:23:56.062Z,102192.80
2023-02-15T10:26:33.857Z,102188.08
2023-02-15T10:29:11.155Z,102183.02
2023-02-15T10:31:50.221Z,102175.15
2023-02-15T10:34:29.583Z,102176.52
2023-02-15T10:37:26.949Z,102168.77
2023-02-15T10:40:09.427Z,102167.02
2023-02-15T10:42:56.942Z,102165.96
2023-02-15T10:45:42.998Z,102159.38
2023-02-15T10:48:37.078Z,102163.45
2023-02-15T10:51:18.020Z,102156.45
2023-02-15T10:54:06.888Z,102155.17
2023-02-15T10:56:49.519Z,102154.10
2023-02-15T10:59:35.898Z,102148.43
2023-02-15T11:02:11.983Z,102145.42
2023-02-15T11:04:56.484Z,102145.92
2023-02-15T11:07:35.621Z,102144.77
2023-02-15T11:10:30.844Z,102140.09
2023-02-15T11:13:10.986Z,102136.20
2023-02-15T11:15:47.806Z,102136.29
2023-02-15T11:18:26.867Z,102131.34
2023-02-15T11:21:04.286Z,102136.98
2023-02-15T11:23:43.148Z,102139.35
2023-02-15T11:26:21.616Z,102134.70
2023-02-15T11:28:59.774Z,102133.30
2023-02-15T11:31:45.206Z,102137.38
2023-02-15T11:34:24.770Z,102135.02
2023-02-15T11:37:00.896Z,102137.14
2023-02-15T11:39:37.461Z,102131.67
2023-02-15T11:42:15.979Z,102129.90
2023-02-15T11:44:56.560Z,102123.95
2023-02-15T11:47:28.941Z,102125.27
2023-02-15T11:50:01.691Z,102121.19
2023-02-15T11:52:34.735Z,102115.70
2023-02-15T11:55:20.295Z,102114.85
2023-02-15T11:57:58.529Z,102115.06
2023-02-15T12:00:38.601Z,102109.73
2023-02-15T12:03:23.405Z,102112.67
2023-02-15T12:06:00.936Z,102108.05
2023-02-15T12:08:40.416Z,102108.44
2023-02-15T12:11:17.447Z,102102.34
2023-02-15T12:14:03.842Z,102106.75
2023-02-15T12:16:44.893Z,102102.17
2023-02-15T12:19:30.713Z,102103.48
2023-02-15T12:22:05.947Z,102101.35
2023-02-15T12:24:46.411Z,102099.48
2023-02-15T12:27:22.305Z,102093.04
2023-02-15T12:29:54.149Z,102097.70
2023-02-15T12:32:29.853Z,102094.09
2023-02-15T12:35:10.065Z,102094.60
2023-02-15T12:37:53.431Z,102092.57
2023-02-15T12:40:31.256Z,102092.80
2023-02-15T12:43:09.669Z,102091.77
2023-02-15T12:45:42.302Z,102087.17
2023-02-15T12:48:19.276Z,102093.31
2023-02-15T12:50:55.924Z,102097.00
2023-02-15T12:53:35.880Z,102093.29
2023-02-15T12:56:11.064Z,102088.69
2023-02-15T12:58:46.988Z,102085.59
2023-02-15T13:01:25.597Z,102079.56
2023-02-15T13:04:03.583Z,102080.80
2023-02-15T13:06:38.838Z,102076.63
2023-02-15T13:09:20.421Z,102075.94
2023-02-15T13:11:53.337Z,102074.75
2023-02-15T13:14:31.170Z,102074.64
2023-02-15T13:17:08.724Z,102066.13
2023-02-15T13:19:45.112Z,102072.61
2023-02-15T13:22:21.096Z,102067.45
2023-02-15T13:24:58.214Z,102064.63
2023-02-15T13:27:41.412Z,102062.77
2023-02-15T13:30:25.884Z,102057.60
2023-02-15T13:33:03.091Z,102062.34
2023-02-15T13:35:45.673Z,102061.50
2023-02-15T13:38:44.669Z,102057.44
2023-02-15T13:41:22.525Z,102058.35
2023-02-15T13:44:01.719Z,102057.36
2023-02-15T13:46:48.318Z,102057.16
2023-02-15T13:49:30.534Z,102055.73
2023-02-15T13:52:10.649Z,102052.80
2023-02-15T13:55:02.700Z,102044.69
2023-02-15T13:57:55.980Z,102047.65
2023-02-15T14:00:34.901Z,102043.26
2023-02-15T14:03:46.274Z,102048.09
2023-02-15T14:06:47.178Z,102050.83
2023-02-15T14:09:32.639Z,102060.97
2023-02-15T14:12:22.683Z,102051.92
2023-02-15T14:15:20.728Z,102048.26
2023-02-15T14:18:04.212Z,102047.52
2023-02-15T14:20:51.203Z,102047.73
2023-02-15T14:23:37.309Z,102046.78
2023-02-15T14:26:14.279Z,102047.09
2023-02-15T14:28:53.553Z,102049.02
2023-02-15T14:31:36.109Z,102046.27
2023-02-15T14:34:18.016Z,102048.17
2023-02-15T14:36:51.844Z,102045.55
2023-02-15T14:39:51.871Z,102047.41
2023-02-15T14:42:33.744Z,102047.74
2023-02-15T14:45:17.736Z,102045.71
2023-02-15T14:47:57.831Z,102048.11
2023-02-15T14:50:47.832Z,102050.23
2023-02-15T14:53:27.460Z,102050.88
2023-02-15T14:56:19.886Z,102048.64
2023-02-15T14:59:17.991Z,102051.36
2023-02-15T15:02:00.509Z,102051.66
2023-02-15T15:04:36.545Z,102051.52
2023-02-15T15:07:24.396Z,102056.02
2023-02-15T15:10:17.014Z,102062.36
2023-02-15T15:12:50.114Z,102060.57
2023-02-15T15:15:47.417Z,102058.31
2023-02-15T15:18:52.878Z,102054.04
2023-02-15T15:22:05.324Z,102060.45
2023-02-15T15:24:53.772Z,102063.98
2023-02-15T15:27:57.720Z,102066.37
2023-02-15T15:31:02.961Z,102068.08
2023-02-15T15:34:18.421Z,102069.22
2023-02-15T15:37:27.605Z,102065.41
2023-02-15T15:40:28.456Z,102067.88
2023-02-15T15:43:29.146Z,102069.63
2023-02-15T15:46:14.774Z,102069.13
2023-02-15T15:48:47.410Z,102071.59
2023-02-15T15:51:25.070Z,102071.02
2023-02-15T15:53:58.056Z,102074.67
2023-02-15T15:56:35.763Z,102075.55
2023-02-15T15:59:15.578Z,102078.42
2023-02-15T16:01:49.316Z,102081.40
2023-02-15T16:04:30.933Z,102087.40
2023-02-15T16:07:22.738Z,102088.38
2023-02-15T16:10:04.232Z,102091.30
2023-02-15T16:12:39.145Z,102090.86
2023-02-15T16:15:19.516Z,102097.77
2023-02-15T16:17:56.319Z,102096.09
2023-02-15T16:20:32.800Z,102101.48
2023-02-15T16:23:21.784Z,102102.98
2023-02-15T16:26:05.407Z,102105.28
2023-02-15T16:28:37.934Z,102105.41
2023-02-15T16:31:14.525Z,102113.27
2023-02-15T16:33:47.918Z,102117.80
2023-02-15T16:36:27.367Z,102116.81
2023-02-15T16:39:20.119Z,102122.27
2023-02-15T16:41:56.900Z,102129.56
2023-02-15T16:44:34.024Z,102129.58
2023-02-15T16:47:06.534Z,102134.73
2023-02-15T16:49:40.562Z,102135.01
2023-02-15T16:52:22.169Z,102135.48
2023-02-15T16:55:00.320Z,102136.21
2023-02-15T16:57:36.967Z,102142.63
2023-02-15T17:00:21.740Z,102145.61
2023-02-15T17:03:04.045Z,102146.96
2023-02-15T17:05:42.573Z,102138.63
2023-02-15T17:08:20.668Z,102144.66
2023-02-15T17:11:08.235Z,102143.50
2023-02-15T17:13:41.268Z,102145.33
2023-02-15T17:16:32.778Z,102147.60
2023-02-15T17:19:11.649Z,102148.50
2023-02-15T17:21:50.291Z,102151.33
2023-02-15T17:24:27.601Z,102152.30
2023-02-15T17:27:03.132Z,102157.12
2023-02-15T17:29:39.924Z,102152.56
2023-02-15T17:32:21.993Z,102156.11
2023-02-15T17:35:11.445Z,102160.70
2023-02-15T17:37:51.483Z,102161.23
2023-02-15T17:40:27.532Z,102166.80
2023-02-15T17:42:59.985Z,102167.36
2023-02-15T17:45:36.537Z,102167.78
2023-02-15T17:48:20.882Z,102162.89
2023-02-15T17:50:53.489Z,102163.97
2023-02-15T17:53:27.753Z,102169.71
2023-02-15T17:56:00.906Z,102165.42
2023-02-15T17:58:33.493Z,102168.98
2023-02-15T18:01:26.315Z,102171.64
2023-02-15T18:04:16.769Z,102172.52
2023-02-15T18:07:07.212Z,102175.34
2023-02-15T18:09:57.201Z,102172.70
2023-02-15T18:12:31.932Z,102176.95
2023-02-15T18:15:04.596Z,102180.54
2023-02-15T18:17:43.014Z,102183.80
2023-02-15T18:20:24.492Z,102187.73
2023-02-15T18:22:57.509Z,102182.53
2023-02-15T18:25:30.007Z,102185.29
2023-02-15T18:28:07.789Z,102186.73
2023-02-15T18:30:45.486Z,102188.88
2023-02-15T18:33:31.170Z,102190.44
2023-02-15T18:36:05.809Z,102190.41
2023-02-15T18:38:39.410Z,102192.30
2023-02-15T18:41:18.163Z,102193.70
2023-02-15T18:43:54.232Z,102202.98
2023-02-15T18:46:25.210Z,102200.52
2023-02-15T18:48:59.935Z,102203.34
2023-02-15T18:51:35.582Z,102204.65
2023-02-15T18:54:17.016Z,102212.27
2023-02-15T18:56:54.609Z,102213.35
2023-02-15T18:59:28.382Z,102213.52
2023-02-15T19:02:01.540Z,102216.25
2023-02-15T19:04:35.833Z,102219.09
2023-02-15T19:07:16.194Z,102213.11
2023-02-15T19:09:54.261Z,102217.83
2023-02-15T19:12:30.631Z,102218.27
2023-02-15T19:15:02.952Z,102222.04
2023-02-15T19:17:35.365Z,102228.48
2023-02-15T19:20:11.513Z,102221.80
2023-02-15T19:22:44.007Z,102218.36
2023-02-15T19:25:23.351Z,102223.82
2023-02-15T19:27:57.937Z,102230.08
2023-02-15T19:30:33.554Z,102230.03
2023-02-15T19:33:06.652Z,102231.79
2023-02-15T19:35:41.236Z,102228.31
2023-02-15T19:38:20.276Z,102224.34
2023-02-15T19:40:53.399Z,102221.65
2023-02-15T19:43:27.876Z,102224.39
2023-02-15T19:46:00.617Z,102222.17
2023-02-15T19:48:33.325Z,102224.86
2023-02-15T19:51:07.183Z,102223.36
2023-02-15T19:53:39.614Z,102229.30
2023-02-15T19:56:15.870Z,102224.52
2023-02-15T19:58:50.641Z,102228.02
2023-02-15T20:01:23.515Z,102224.35
2023-02-15T20:03:55.891Z,102227.84
2023-02-15T20:06:28.227Z,102224.79
2023-02-15T20:09:00.736Z,102226.56
2023-02-15T20:11:33.021Z,102225.80
2023-02-15T20:14:07.251Z,102225.15
2023-02-15T20:16:43.179Z,102221.86
2023-02-15T20:19:16.588Z,102224.27
2023-02-15T20:21:55.075Z,102224.89
2023-02-15T20:24:29.881Z,102221.35
2023-02-15T20:27:02.314Z,102221.23
2023-02-15T20:29:34.589Z,102216.27
2023-02-15T20:32:12.828Z,102216.45
2023-02-15T20:34:45.485Z,102212.50
2023-02-15T20:37:26.451Z,102218.21
2023-02-15T20:39:59.298Z,102217.63
2023-02-15T20:42:31.661Z,102218.84
2023-02-15T20:45:07.443Z,102221.92
2023-02-15T20:47:39.736Z,102220.14
2023-02-15T20:50:12.626Z,102223.46
2023-02-15T20:52:45.693Z,102224.23
2023-02-15T20:55:23.282Z,102217.70
2023-02-15T20:57:56.168Z,102225.58
2023-02-15T21:00:30.414Z,102227.27
2023-02-15T21:03:06.406Z,102229.73
2023-02-15T21:05:38.935Z,102229.03
2023-02-15T21:08:16.157Z,102230.06
2023-02-15T21:10:50.170Z,102230.60
2023-02-15T21:13:26.373Z,102232.89
2023-02-15T21:15:59.618Z,102231.45
2023-02-15T21:18:34.781Z,102235.10
2023-02-15T21:21:08.546Z,102231.60
2023-02-15T21:23:43.179Z,102232.38
2023-02-15T21:26:19.964Z,102233.20
2023-02-15T21:28:52.613Z,102227.30
2023-02-15T21:31:28.820Z,102227.43
2023-02-15T21:34:01.768Z,102227.91
2023-02-15T21:36:34.427Z,102228.98
2023-02-15T21:39:07.187Z,102231.49
2023-02-15T21:41:57.051Z,102228.77
2023-02-15T21:44:46.922Z,102233.52
2023-02-15T21:47:41.611Z,102238.52
2023-02-15T21:50:34.828Z,102239.52
2023-02-15T21:53:08.601Z,102244.43
2023-02-15T21:55:41.072Z,102238.64
2023-02-15T21:58:22.801Z,102241.01
2023-02-15T22:00:56.602Z,102242.86
2023-02-15T22:03:33.119Z,102243.58
2023-02-15T22:06:06.202Z,102242.85
2023-02-15T22:08:38.488Z,102238.42
2023-02-15T22:11:15.245Z,102243.15
2023-02-15T22:13:48.802Z,102242.30
2023-02-15T22:16:24.117Z,102243.05
2023-02-15T22:18:56.368Z,102237.27
2023-02-15T22:21:31.500Z,102239.95
2023-02-15T22:24:04.186Z,102243.52
2023-02-15T22:26:36.497Z,102248.83
2023-02-15T22:29:11.226Z,102246.95
2023-02-15T22:31:43.592Z,102243.63
2023-02-15T22:34:28.450Z,102240.89
2023-02-15T22:37:01.510Z,102237.98
2023-02-15T22:39:34.149Z,102239.58
2023-02-15T22:42:07.130Z,102237.30
2023-02-15T22:44:39.802Z,102239.44
2023-02-15T22:47:21.482Z,102238.34
2023-02-15T22:49:54.738Z,102238.63
2023-02-15T22:52:27.310Z,102237.61
2023-02-15T22:54:59.748Z,102236.02
2023-02-15T22:57:33.534Z,102234.61
2023-02-15T23:00:08.129Z,102237.56
2023-02-15T23:02:40.936Z,102235.81
2023-02-15T23:05:20.962Z,102239.60
2023-02-15T23:07:53.644Z,102243.02
2023-02-15T23:10:27.696Z,102243.52
2023-02-15T23:13:19.419Z,102243.73
2023-02-15T23:15:54.135Z,102244.98
2023-02-15T23:18:30.704Z,102246.80
2023-02-15T23:21:05.920Z,102245.59
2023-02-15T23:23:41.174Z,102244.02
2023-02-15T23:26:20.090Z,102245.06
2023-02-15T23:28:53.442Z,102243.11
2023-02-15T23:31:28.626Z,102244.03
2023-02-15T23:34:03.658Z,102239.80
2023-02-15T23:36:38.797Z,102241.49
2023-02-15T23:39:34.157Z,102241.45
2023-02-15T23:42:11.231Z,102240.25
2023-02-15T23:44:45.124Z,102235.89
2023-02-15T23:47:43.101Z,102235.34
2023-02-15T23:50:21.835Z,102238.30
2023-02-15T23:52:55.365Z,102238.23
2023-02-15T23:55:34.555Z,102239.17
2023-02-15T23:58:12.249Z,102241.80
